sensor_id;sensor_type;location;lat;lon;timestamp;pressure;altitude;pressure_sealevel;temperature;humidity
64141;BME280;50436;50.618;7.932;2024-03-23T00:53:13;95672.28;;;7.21;100.00
64141;BME280;50436;50.618;7.932;2024-03-23T00:56:00;95665.97;;;7.27;100.00
64141;BME280;50436;50.618;7.932;2024-03-23T00:58:46;95663.50;;;7.42;100.00
64141;BME280;50436;50.618;7.932;2024-03-23T01:01:32;95661.56;;;7.60;100.00
64141;BME280;50436;50.618;7.932;2024-03-23T01:04:18;95652.06;;;7.64;100.00
64141;BME280;50436;50.618;7.932;2024-03-23T01:07:04;95652.16;;;7.74;100.00
64141;BME280;50436;50.618;7.932;2024-03-23T01:09:50;95641.69;;;7.67;100.00
64141;BME280;50436;50.618;7.932;2024-03-23T01:12:37;95647.63;;;7.74;100.00
64141;BME280;50436;50.618;7.932;2024-03-23T01:15:23;95657.75;;;7.72;100.00
64141;BME280;50436;50.618;7.932;2024-03-23T01:18:09;95643.00;;;7.65;100.00
64141;BME280;50436;50.618;7.932;2024-03-23T01:20:55;95638.09;;;7.78;100.00
64141;BME280;50436;50.618;7.932;2024-03-23T01:23:41;95641.75;;;7.72;100.00
64141;BME280;50436;50.618;7.932;2024-03-23T01:26:27;95630.25;;;7.67;100.00
64141;BME280;50436;50.618;7.932;2024-03-23T01:29:13;95631.31;;;7.66;100.00
64141;BME280;50436;50.618;7.932;2024-03-23T01:31:59;95607.63;;;7.69;100.00
64141;BME280;50436;50.618;7.932;2024-03-23T01:34:45;95616.41;;;7.70;100.00
64141;BME280;50436;50.618;7.932;2024-03-23T01:37:31;95614.88;;;7.74;100.00
64141;BME280;50436;50.618;7.932;2024-03-23T01:40:17;95612.13;;;7.64;100.00
64141;BME280;50436;50.618;7.932;2024-03-23T01:43:05;95603.41;;;7.73;100.00
64141;BME280;50436;50.618;7.932;2024-03-23T01:45:53;95606.94;;;7.79;100.00
64141;BME280;50436;50.618;7.932;2024-03-23T01:48:39;95598.84;;;7.69;100.00
64141;BME280;50436;50.618;7.932;2024-03-23T01:51:26;95607.88;;;7.68;100.00
64141;BME280;50436;50.618;7.932;2024-03-23T01:54:12;95602.06;;;7.71;100.00
64141;BME280;50436;50.618;7.932;2024-03-23T01:56:58;95598.06;;;7.46;100.00
64141;BME280;50436;50.618;7.932;2024-03-23T01:59:44;95600.78;;;7.30;100.00
64141;BME280;50436;50.618;7.932;2024-03-23T02:02:34;95614.28;;;7.23;100.00
64141;BME280;50436;50.618;7.932;2024-03-23T02:05:20;95612.88;;;6.93;100.00
64141;BME280;50436;50.618;7.932;2024-03-23T02:08:06;95618.38;;;6.70;100.00
64141;BME280;50436;50.618;7.932;2024-03-23T02:10:51;95603.56;;;6.57;100.00
64141;BME280;50436;50.618;7.932;2024-03-23T02:13:37;95602.34;;;6.65;100.00
64141;BME280;50436;50.618;7.932;2024-03-23T02:16:23;95608.97;;;6.46;100.00
64141;BME280;50436;50.618;7.932;2024-03-23T02:19:09;95608.09;;;6.23;100.00
64141;BME280;50436;50.618;7.932;2024-03-23T02:21:55;95600.34;;;6.22;100.00
64141;BME280;50436;50.618;7.932;2024-03-23T02:24:41;95602.44;;;6.03;100.00
64141;BME280;50436;50.618;7.932;2024-03-23T02:27:27;95607.00;;;5.91;100.00
64141;BME280;50436;50.618;7.932;2024-03-23T02:30:13;95619.44;;;5.73;100.00
64141;BME280;50436;50.618;7.932;2024-03-23T02:32:58;95624.06;;;5.66;100.00
64141;BME280;50436;50.618;7.932;2024-03-23T02:35:45;95620.63;;;5.66;100.00
64141;BME280;50436;50.618;7.932;2024-03-23T02:38:31;95616.03;;;5.61;100.00
64141;BME280;50436;50.618;7.932;2024-03-23T02:41:17;95617.41;;;5.64;100.00
64141;BME280;50436;50.618;7.932;2024-03-23T02:44:08;95620.06;;;5.64;100.00
64141;BME280;50436;50.618;7.932;2024-03-23T02:46:57;95609.44;;;5.64;100.00
64141;BME280;50436;50.618;7.932;2024-03-23T02:49:43;95599.53;;;5.59;100.00
64141;BME280;50436;50.618;7.932;2024-03-23T02:52:29;95606.81;;;5.52;100.00
64141;BME280;50436;50.618;7.932;2024-03-23T02:55:15;95600.56;;;5.58;100.00
64141;BME280;50436;50.618;7.932;2024-03-23T02:58:01;95597.66;;;5.59;100.00
64141;BME280;50436;50.618;7.932;2024-03-23T03:00:47;95585.59;;;5.52;100.00
64141;BME280;50436;50.618;7.932;2024-03-23T03:03:33;95592.66;;;5.46;100.00
64141;BME280;50436;50.618;7.932;2024-03-23T03:06:25;95596.44;;;5.50;100.00
64141;BME280;50436;50.618;7.932;2024-03-23T03:09:11;95590.59;;;5.48;100.00
64141;BME280;50436;50.618;7.932;2024-03-23T03:11:57;95583.53;;;5.54;100.00
64141;BME280;50436;50.618;7.932;2024-03-23T03:14:43;95600.50;;;5.53;100.00
64141;BME280;50436;50.618;7.932;2024-03-23T03:17:29;95605.06;;;5.57;100.00
64141;BME280;50436;50.618;7.932;2024-03-23T03:20:15;95599.44;;;5.54;100.00
64141;BME280;50436;50.618;7.932;2024-03-23T03:23:01;95587.84;;;5.60;100.00
64141;BME280;50436;50.618;7.932;2024-03-23T03:25:47;95574.13;;;5.63;100.00
64141;BME280;50436;50.618;7.932;2024-03-23T03:28:33;95580.56;;;5.67;100.00
64141;BME280;50436;50.618;7.932;2024-03-23T03:31:19;95570.81;;;5.56;100.00
64141;BME280;50436;50.618;7.932;2024-03-23T03:34:04;95591.13;;;5.50;100.00
64141;BME280;50436;50.618;7.932;2024-03-23T03:36:50;95585.66;;;5.40;100.00
64141;BME280;50436;50.618;7.932;2024-03-23T03:39:36;95577.81;;;5.34;100.00
64141;BME280;50436;50.618;7.932;2024-03-23T03:42:22;95596.63;;;5.32;100.00
64141;BME280;50436;50.618;7.932;2024-03-23T03:45:08;95587.31;;;5.29;100.00
64141;BME280;50436;50.618;7.932;2024-03-23T03:47:54;95576.50;;;5.19;100.00
64141;BME280;50436;50.618;7.932;2024-03-23T03:50:40;95573.94;;;5.24;100.00
64141;BME280;50436;50.618;7.932;2024-03-23T03:53:26;95579.38;;;5.18;100.00
64141;BME280;50436;50.618;7.932;2024-03-23T03:56:33;95591.03;;;5.17;100.00
64141;BME280;50436;50.618;7.932;2024-03-23T03:59:20;95572.13;;;5.13;100.00
64141;BME280;50436;50.618;7.932;2024-03-23T04:02:09;95578.94;;;5.09;100.00
64141;BME280;50436;50.618;7.932;2024-03-23T04:04:57;95587.59;;;5.04;100.00
64141;BME280;50436;50.618;7.932;2024-03-23T04:07:43;95597.31;;;4.99;100.00
64141;BME280;50436;50.618;7.932;2024-03-23T04:10:31;95600.09;;;4.81;100.00
64141;BME280;50436;50.618;7.932;2024-03-23T04:13:17;95581.09;;;4.84;100.00
64141;BME280;50436;50.618;7.932;2024-03-23T04:16:03;95586.28;;;4.79;100.00
64141;BME280;50436;50.618;7.932;2024-03-23T04:18:52;95575.91;;;4.65;100.00
64141;BME280;50436;50.618;7.932;2024-03-23T04:21:41;95588.72;;;4.57;100.00
64141;BME280;50436;50.618;7.932;2024-03-23T04:24:27;95597.56;;;4.51;100.00
64141;BME280;50436;50.618;7.932;2024-03-23T04:27:13;95595.75;;;4.51;100.00
64141;BME280;50436;50.618;7.932;2024-03-23T04:29:59;95601.16;;;4.21;100.00
64141;BME280;50436;50.618;7.932;2024-03-23T04:32:49;95607.25;;;4.33;100.00
64141;BME280;50436;50.618;7.932;2024-03-23T04:35:35;95626.00;;;4.20;100.00
64141;BME280;50436;50.618;7.932;2024-03-23T04:38:21;95649.25;;;4.06;100.00
64141;BME280;50436;50.618;7.932;2024-03-23T04:41:07;95651.44;;;4.09;100.00
64141;BME280;50436;50.618;7.932;2024-03-23T04:43:53;95655.59;;;4.05;100.00
64141;BME280;50436;50.618;7.932;2024-03-23T04:46:39;95661.31;;;3.90;100.00
64141;BME280;50436;50.618;7.932;2024-03-23T04:49:25;95662.53;;;3.88;100.00
64141;BME280;50436;50.618;7.932;2024-03-23T04:52:11;95688.28;;;3.81;100.00
64141;BME280;50436;50.618;7.932;2024-03-23T04:54:57;95700.09;;;3.67;100.00
64141;BME280;50436;50.618;7.932;2024-03-23T04:57:46;95705.88;;;3.45;100.00
64141;BME280;50436;50.618;7.932;2024-03-23T05:00:35;95699.88;;;3.50;100.00
64141;BME280;50436;50.618;7.932;2024-03-23T05:03:24;95690.16;;;3.50;100.00
64141;BME280;50436;50.618;7.932;2024-03-23T05:06:09;95676.75;;;3.45;100.00
64141;BME280;50436;50.618;7.932;2024-03-23T05:08:55;95680.88;;;3.41;100.00
64141;BME280;50436;50.618;7.932;2024-03-23T05:11:47;95677.94;;;3.31;100.00
64141;BME280;50436;50.618;7.932;2024-03-23T05:14:35;95675.59;;;3.41;100.00
64141;BME280;50436;50.618;7.932;2024-03-23T05:17:21;95689.84;;;3.40;100.00
64141;BME280;50436;50.618;7.932;2024-03-23T05:20:07;95676.50;;;3.35;100.00
64141;BME280;50436;50.618;7.932;2024-03-23T05:22:55;95672.66;;;3.31;100.00
64141;BME280;50436;50.618;7.932;2024-03-23T05:25:41;95668.31;;;3.37;100.00
64141;BME280;50436;50.618;7.932;2024-03-23T05:28:27;95669.47;;;3.41;100.00
64141;BME280;50436;50.618;7.932;2024-03-23T05:31:12;95671.91;;;3.42;100.00
64141;BME280;50436;50.618;7.932;2024-03-23T05:34:08;95677.50;;;3.34;100.00
64141;BME280;50436;50.618;7.932;2024-03-23T05:36:54;95685.44;;;3.34;100.00
64141;BME280;50436;50.618;7.932;2024-03-23T05:39:40;95687.78;;;3.42;100.00
64141;BME280;50436;50.618;7.932;2024-03-23T05:42:26;95690.00;;;3.45;100.00
64141;BME280;50436;50.618;7.932;2024-03-23T05:45:14;95691.28;;;3.54;100.00
64141;BME280;50436;50.618;7.932;2024-03-23T05:48:04;95699.38;;;3.41;100.00
64141;BME280;50436;50.618;7.932;2024-03-23T05:50:50;95706.69;;;3.27;100.00
64141;BME280;50436;50.618;7.932;2024-03-23T05:53:36;95722.47;;;3.16;100.00
64141;BME280;50436;50.618;7.932;2024-03-23T05:56:22;95715.47;;;3.03;100.00
64141;BME280;50436;50.618;7.932;2024-03-23T05:59:08;95714.16;;;3.12;100.00
64141;BME280;50436;50.618;7.932;2024-03-23T06:01:54;95706.66;;;3.09;100.00
64141;BME280;50436;50.618;7.932;2024-03-23T06:04:40;95713.38;;;3.12;100.00
64141;BME280;50436;50.618;7.932;2024-03-23T06:07:26;95719.66;;;3.11;100.00
64141;BME280;50436;50.618;7.932;2024-03-23T06:10:12;95720.84;;;3.15;100.00
64141;BME280;50436;50.618;7.932;2024-03-23T06:12:58;95730.97;;;3.18;100.00
64141;BME280;50436;50.618;7.932;2024-03-23T06:15:45;95732.44;;;3.14;100.00
64141;BME280;50436;50.618;7.932;2024-03-23T06:18:32;95728.03;;;3.07;100.00
64141;BME280;50436;50.618;7.932;2024-03-23T06:21:18;95745.97;;;3.05;100.00
64141;BME280;50436;50.618;7.932;2024-03-23T06:24:04;95754.59;;;2.94;100.00
64141;BME280;50436;50.618;7.932;2024-03-23T06:26:50;95762.50;;;2.94;100.00
64141;BME280;50436;50.618;7.932;2024-03-23T06:29:36;95761.44;;;3.02;100.00
64141;BME280;50436;50.618;7.932;2024-03-23T06:32:22;95762.22;;;3.02;100.00
64141;BME280;50436;50.618;7.932;2024-03-23T06:35:08;95766.78;;;2.95;100.00
64141;BME280;50436;50.618;7.932;2024-03-23T06:37:55;95776.69;;;3.00;100.00
64141;BME280;50436;50.618;7.932;2024-03-23T06:40:41;95763.72;;;2.98;100.00
64141;BME280;50436;50.618;7.932;2024-03-23T06:43:26;95763.31;;;2.95;100.00
64141;BME280;50436;50.618;7.932;2024-03-23T06:46:12;95773.19;;;3.06;100.00
64141;BME280;50436;50.618;7.932;2024-03-23T06:48:58;95771.81;;;3.22;100.00
64141;BME280;50436;50.618;7.932;2024-03-23T06:51:45;95779.19;;;3.20;100.00
64141;BME280;50436;50.618;7.932;2024-03-23T06:54:31;95777.53;;;3.19;100.00
64141;BME280;50436;50.618;7.932;2024-03-23T06:57:17;95780.72;;;3.27;100.00
64141;BME280;50436;50.618;7.932;2024-03-23T07:00:03;95789.31;;;3.23;100.00
64141;BME280;50436;50.618;7.932;2024-03-23T07:02:49;95795.41;;;3.23;100.00
64141;BME280;50436;50.618;7.932;2024-03-23T07:05:35;95796.66;;;3.21;100.00
64141;BME280;50436;50.618;7.932;2024-03-23T07:08:21;95797.06;;;3.18;100.00
64141;BME280;50436;50.618;7.932;2024-03-23T07:11:08;95800.31;;;3.20;100.00
64141;BME280;50436;50.618;7.932;2024-03-23T07:13:54;95804.59;;;3.21;100.00
64141;BME280;50436;50.618;7.932;2024-03-23T07:16:42;95801.50;;;3.24;100.00
64141;BME280;50436;50.618;7.932;2024-03-23T07:19:28;95804.06;;;3.30;100.00
64141;BME280;50436;50.618;7.932;2024-03-23T07:22:14;95792.41;;;3.20;100.00
64141;BME280;50436;50.618;7.932;2024-03-23T07:25:01;95814.88;;;3.29;100.00
64141;BME280;50436;50.618;7.932;2024-03-23T07:27:47;95817.25;;;3.37;100.00
64141;BME280;50436;50.618;7.932;2024-03-23T07:30:33;95809.59;;;3.47;100.00
64141;BME280;50436;50.618;7.932;2024-03-23T07:33:19;95823.63;;;3.48;100.00
64141;BME280;50436;50.618;7.932;2024-03-23T07:36:05;95820.75;;;3.49;100.00
64141;BME280;50436;50.618;7.932;2024-03-23T07:38:51;95826.78;;;3.56;100.00
64141;BME280;50436;50.618;7.932;2024-03-23T07:41:37;95827.47;;;3.70;100.00
64141;BME280;50436;50.618;7.932;2024-03-23T07:44:23;95836.38;;;3.94;100.00
64141;BME280;50436;50.618;7.932;2024-03-23T07:47:08;95826.81;;;3.93;100.00
64141;BME280;50436;50.618;7.932;2024-03-23T07:49:54;95826.81;;;3.93;100.00
64141;BME280;50436;50.618;7.932;2024-03-23T07:52:40;95832.44;;;3.97;100.00
64141;BME280;50436;50.618;7.932;2024-03-23T07:55:26;95832.38;;;4.03;100.00
64141;BME280;50436;50.618;7.932;2024-03-23T07:58:12;95831.19;;;4.17;100.00
64141;BME280;50436;50.618;7.932;2024-03-23T08:01:07;95838.06;;;4.07;100.00
64141;BME280;50436;50.618;7.932;2024-03-23T08:03:56;95840.94;;;4.05;100.00
64141;BME280;50436;50.618;7.932;2024-03-23T08:06:42;95850.91;;;4.22;100.00
64141;BME280;50436;50.618;7.932;2024-03-23T08:09:28;95853.25;;;4.11;100.00
64141;BME280;50436;50.618;7.932;2024-03-23T08:12:14;95857.53;;;4.12;100.00
64141;BME280;50436;50.618;7.932;2024-03-23T08:15:00;95846.75;;;4.44;100.00
64141;BME280;50436;50.618;7.932;2024-03-23T08:17:46;95862.03;;;4.60;100.00
64141;BME280;50436;50.618;7.932;2024-03-23T08:20:31;95854.91;;;4.72;100.00
64141;BME280;50436;50.618;7.932;2024-03-23T08:23:17;95860.66;;;4.69;100.00
64141;BME280;50436;50.618;7.932;2024-03-23T08:26:05;95872.69;;;4.84;100.00
64141;BME280;50436;50.618;7.932;2024-03-23T08:28:51;95854.91;;;4.72;100.00
64141;BME280;50436;50.618;7.932;2024-03-23T08:31:39;95858.19;;;4.98;100.00
64141;BME280;50436;50.618;7.932;2024-03-23T08:34:25;95866.53;;;5.25;100.00
64141;BME280;50436;50.618;7.932;2024-03-23T08:37:10;95863.66;;;5.15;100.00
64141;BME280;50436;50.618;7.932;2024-03-23T08:39:56;95859.41;;;5.61;100.00
64141;BME280;50436;50.618;7.932;2024-03-23T08:42:42;95855.38;;;5.58;100.00
64141;BME280;50436;50.618;7.932;2024-03-23T08:45:29;95852.47;;;5.71;100.00
64141;BME280;50436;50.618;7.932;2024-03-23T08:48:15;95860.03;;;6.14;100.00
64141;BME280;50436;50.618;7.932;2024-03-23T08:51:05;95865.75;;;5.95;100.00
64141;BME280;50436;50.618;7.932;2024-03-23T08:53:51;95852.59;;;6.00;100.00
64141;BME280;50436;50.618;7.932;2024-03-23T08:56:37;95868.13;;;6.31;100.00
64141;BME280;50436;50.618;7.932;2024-03-23T08:59:23;95885.03;;;6.54;100.00
64141;BME280;50436;50.618;7.932;2024-03-23T09:02:09;95865.03;;;6.23;100.00
64141;BME280;50436;50.618;7.932;2024-03-23T09:04:55;95864.59;;;6.02;100.00
64141;BME280;50436;50.618;7.932;2024-03-23T09:07:41;95852.47;;;5.71;100.00
64141;BME280;50436;50.618;7.932;2024-03-23T09:10:29;95860.44;;;5.71;100.00
64141;BME280;50436;50.618;7.932;2024-03-23T09:13:15;95861.34;;;5.88;100.00
64141;BME280;50436;50.618;7.932;2024-03-23T09:16:02;95854.28;;;6.18;100.00
64141;BME280;50436;50.618;7.932;2024-03-23T09:18:48;95851.34;;;6.88;100.00
64141;BME280;50436;50.618;7.932;2024-03-23T09:21:34;95857.31;;;6.09;100.00
64141;BME280;50436;50.618;7.932;2024-03-23T09:24:20;95874.41;;;5.55;100.00
64141;BME280;50436;50.618;7.932;2024-03-23T09:27:06;95852.56;;;5.06;100.00
64141;BME280;50436;50.618;7.932;2024-03-23T09:29:52;95860.72;;;5.04;100.00
64141;BME280;50436;50.618;7.932;2024-03-23T09:32:38;95862.72;;;5.09;100.00
64141;BME280;50436;50.618;7.932;2024-03-23T09:35:24;95869.09;;;5.43;100.00
64141;BME280;50436;50.618;7.932;2024-03-23T09:38:10;95871.53;;;5.45;100.00
64141;BME280;50436;50.618;7.932;2024-03-23T09:40:57;95864.47;;;5.74;100.00
64141;BME280;50436;50.618;7.932;2024-03-23T09:43:43;95878.78;;;5.73;100.00
64141;BME280;50436;50.618;7.932;2024-03-23T09:46:29;95866.09;;;5.40;100.00
64141;BME280;50436;50.618;7.932;2024-03-23T09:49:19;95861.50;;;5.47;100.00
64141;BME280;50436;50.618;7.932;2024-03-23T09:52:05;95864.03;;;5.42;100.00
64141;BME280;50436;50.618;7.932;2024-03-23T09:54:51;95853.88;;;5.50;100.00
64141;BME280;50436;50.618;7.932;2024-03-23T09:57:42;95861.03;;;5.62;100.00
64141;BME280;50436;50.618;7.932;2024-03-23T10:00:28;95856.97;;;5.71;100.00
64141;BME280;50436;50.618;7.932;2024-03-23T10:03:14;95849.34;;;5.74;100.00
64141;BME280;50436;50.618;7.932;2024-03-23T10:06:01;95847.38;;;6.05;100.00
64141;BME280;50436;50.618;7.932;2024-03-23T10:08:48;95841.56;;;6.20;100.00
64141;BME280;50436;50.618;7.932;2024-03-23T10:11:36;95850.78;;;6.57;100.00
64141;BME280;50436;50.618;7.932;2024-03-23T10:14:31;95830.59;;;6.73;100.00
64141;BME280;50436;50.618;7.932;2024-03-23T10:17:22;95830.06;;;7.05;100.00
64141;BME280;50436;50.618;7.932;2024-03-23T10:20:11;95827.19;;;7.40;100.00
64141;BME280;50436;50.618;7.932;2024-03-23T10:22:57;95825.44;;;6.83;100.00
64141;BME280;50436;50.618;7.932;2024-03-23T10:25:43;95816.97;;;7.53;100.00
64141;BME280;50436;50.618;7.932;2024-03-23T10:28:31;95812.28;;;8.21;100.00
64141;BME280;50436;50.618;7.932;2024-03-23T10:31:17;95805.06;;;8.65;100.00
64141;BME280;50436;50.618;7.932;2024-03-23T10:34:03;95824.25;;;7.58;100.00
64141;BME280;50436;50.618;7.932;2024-03-23T10:36:49;95817.41;;;6.50;100.00
64141;BME280;50436;50.618;7.932;2024-03-23T10:39:37;95855.56;;;6.15;100.00
64141;BME280;50436;50.618;7.932;2024-03-23T10:42:23;95859.88;;;5.46;100.00
64141;BME280;50436;50.618;7.932;2024-03-23T10:45:09;95852.00;;;7.45;100.00
64141;BME280;50436;50.618;7.932;2024-03-23T10:47:55;95827.56;;;12.97;100.00
64141;BME280;50436;50.618;7.932;2024-03-23T10:50:41;95830.41;;;15.50;85.52
64141;BME280;50436;50.618;7.932;2024-03-23T10:53:28;95818.91;;;17.14;75.40
64141;BME280;50436;50.618;7.932;2024-03-23T10:56:14;95811.75;;;18.56;58.89
64141;BME280;50436;50.618;7.932;2024-03-23T10:59:03;95824.59;;;18.82;49.85
64141;BME280;50436;50.618;7.932;2024-03-23T11:01:55;95812.50;;;18.00;49.94
64141;BME280;50436;50.618;7.932;2024-03-23T11:04:44;95799.75;;;18.00;51.90
64141;BME280;50436;50.618;7.932;2024-03-23T11:07:30;95797.78;;;17.84;48.72
64141;BME280;50436;50.618;7.932;2024-03-23T11:10:27;95802.03;;;17.76;47.06
64141;BME280;50436;50.618;7.932;2024-03-23T11:13:24;95798.44;;;17.22;48.03
64141;BME280;50436;50.618;7.932;2024-03-23T11:19:34;95815.81;;;9.40;100.00
64141;BME280;50436;50.618;7.932;2024-03-23T11:25:26;95829.41;;;8.03;100.00
64141;BME280;50436;50.618;7.932;2024-03-23T11:28:12;95815.53;;;7.85;100.00
64141;BME280;50436;50.618;7.932;2024-03-23T11:31:01;95828.78;;;7.41;100.00
64141;BME280;50436;50.618;7.932;2024-03-23T11:33:46;95899.88;;;6.95;100.00
64141;BME280;50436;50.618;7.932;2024-03-23T11:36:32;95895.06;;;6.23;100.00
64141;BME280;50436;50.618;7.932;2024-03-23T11:39:19;95898.75;;;5.75;100.00
64141;BME280;50436;50.618;7.932;2024-03-23T11:42:05;95908.22;;;5.48;100.00
64141;BME280;50436;50.618;7.932;2024-03-23T11:44:51;95890.66;;;5.82;100.00
64141;BME280;50436;50.618;7.932;2024-03-23T11:47:37;95861.31;;;9.92;100.00
64141;BME280;50436;50.618;7.932;2024-03-23T11:50:23;95851.03;;;10.94;100.00
64141;BME280;50436;50.618;7.932;2024-03-23T11:53:17;95872.50;;;11.14;100.00
64141;BME280;50436;50.618;7.932;2024-03-23T11:56:05;95880.56;;;12.01;98.00
64141;BME280;50436;50.618;7.932;2024-03-23T11:58:51;95866.84;;;15.99;76.28
64141;BME280;50436;50.618;7.932;2024-03-23T12:01:38;95859.53;;;18.13;50.90
64141;BME280;50436;50.618;7.932;2024-03-23T12:04:27;95835.13;;;20.51;44.37
64141;BME280;50436;50.618;7.932;2024-03-23T12:07:18;95831.56;;;22.39;35.03
64141;BME280;50436;50.618;7.932;2024-03-23T12:10:05;95817.03;;;22.02;31.67
64141;BME280;50436;50.618;7.932;2024-03-23T12:13:00;95823.50;;;19.87;35.73
64141;BME280;50436;50.618;7.932;2024-03-23T12:15:46;95831.53;;;15.30;53.05
64141;BME280;50436;50.618;7.932;2024-03-23T12:18:33;95856.41;;;12.76;80.56
64141;BME280;50436;50.618;7.932;2024-03-23T12:21:19;95867.13;;;10.99;93.95
64141;BME280;50436;50.618;7.932;2024-03-23T12:24:05;95855.44;;;9.53;100.00
64141;BME280;50436;50.618;7.932;2024-03-23T12:26:51;95858.63;;;7.98;100.00
64141;BME280;50436;50.618;7.932;2024-03-23T12:29:37;95853.69;;;7.68;100.00
64141;BME280;50436;50.618;7.932;2024-03-23T12:32:24;95846.41;;;7.80;100.00
64141;BME280;50436;50.618;7.932;2024-03-23T12:35:14;95856.13;;;9.38;100.00
64141;BME280;50436;50.618;7.932;2024-03-23T12:38:00;95846.50;;;13.21;85.51
64141;BME280;50436;50.618;7.932;2024-03-23T12:40:47;95824.19;;;17.87;49.83
64141;BME280;50436;50.618;7.932;2024-03-23T12:43:35;95815.72;;;20.23;40.14
64141;BME280;50436;50.618;7.932;2024-03-23T12:46:23;95798.97;;;22.55;36.17
64141;BME280;50436;50.618;7.932;2024-03-23T12:49:09;95797.06;;;23.72;30.68
64141;BME280;50436;50.618;7.932;2024-03-23T12:51:56;95784.72;;;25.40;29.66
64141;BME280;50436;50.618;7.932;2024-03-23T12:54:42;95790.22;;;24.38;28.03
64141;BME280;50436;50.618;7.932;2024-03-23T12:57:28;95781.38;;;21.82;33.09
64141;BME280;50436;50.618;7.932;2024-03-23T13:00:14;95808.97;;;22.50;29.71
64141;BME280;50436;50.618;7.932;2024-03-23T13:03:01;95795.16;;;20.81;32.54
64141;BME280;50436;50.618;7.932;2024-03-23T13:05:53;95787.47;;;21.67;30.29
64141;BME280;50436;50.618;7.932;2024-03-23T13:08:39;95804.19;;;22.72;29.51
64141;BME280;50436;50.618;7.932;2024-03-23T13:11:26;95785.38;;;23.59;28.85
64141;BME280;50436;50.618;7.932;2024-03-23T13:14:12;95793.38;;;19.62;31.42
64141;BME280;50436;50.618;7.932;2024-03-23T13:17:02;95777.28;;;22.58;28.98
64141;BME280;50436;50.618;7.932;2024-03-23T13:19:49;95786.22;;;18.40;34.03
64141;BME280;50436;50.618;7.932;2024-03-23T13:22:36;95792.69;;;15.50;41.96
64141;BME280;50436;50.618;7.932;2024-03-23T13:25:25;95788.44;;;15.63;43.12
64141;BME280;50436;50.618;7.932;2024-03-23T13:28:10;95779.31;;;18.25;40.46
64141;BME280;50436;50.618;7.932;2024-03-23T13:30:56;95773.41;;;21.23;32.97
64141;BME280;50436;50.618;7.932;2024-03-23T13:33:49;95773.31;;;24.83;28.12
64141;BME280;50436;50.618;7.932;2024-03-23T13:36:35;95782.03;;;22.98;28.34
64141;BME280;50436;50.618;7.932;2024-03-23T13:39:21;95756.69;;;19.39;30.55
64141;BME280;50436;50.618;7.932;2024-03-23T13:42:07;95782.34;;;21.32;29.30
64141;BME280;50436;50.618;7.932;2024-03-23T13:44:54;95779.94;;;21.31;27.80
64141;BME280;50436;50.618;7.932;2024-03-23T13:47:40;95768.31;;;21.42;28.11
64141;BME280;50436;50.618;7.932;2024-03-23T13:50:26;95761.28;;;24.37;26.26
64141;BME280;50436;50.618;7.932;2024-03-23T13:53:12;95771.72;;;25.95;22.71
64141;BME280;50436;50.618;7.932;2024-03-23T13:55:58;95781.47;;;20.69;30.20
64141;BME280;50436;50.618;7.932;2024-03-23T13:58:44;95804.16;;;15.74;46.21
64141;BME280;50436;50.618;7.932;2024-03-23T14:01:32;95831.22;;;12.07;78.80
64141;BME280;50436;50.618;7.932;2024-03-23T14:04:18;95841.94;;;10.85;91.50
64141;BME280;50436;50.618;7.932;2024-03-23T14:07:05;95826.13;;;9.63;100.00
64141;BME280;50436;50.618;7.932;2024-03-23T14:09:53;95833.25;;;8.83;100.00
64141;BME280;50436;50.618;7.932;2024-03-23T14:12:41;95836.06;;;8.72;100.00
64141;BME280;50436;50.618;7.932;2024-03-23T14:15:27;95830.50;;;8.07;100.00
64141;BME280;50436;50.618;7.932;2024-03-23T14:18:13;95831.16;;;8.63;100.00
64141;BME280;50436;50.618;7.932;2024-03-23T14:21:02;95827.97;;;9.20;100.00
64141;BME280;50436;50.618;7.932;2024-03-23T14:23:48;95820.78;;;9.58;100.00
64141;BME280;50436;50.618;7.932;2024-03-23T14:26:34;95818.84;;;9.96;100.00
64141;BME280;50436;50.618;7.932;2024-03-23T14:29:21;95808.47;;;10.10;100.00
64141;BME280;50436;50.618;7.932;2024-03-23T14:32:06;95818.03;;;9.90;100.00
64141;BME280;50436;50.618;7.932;2024-03-23T14:34:52;95817.78;;;9.97;100.00
64141;BME280;50436;50.618;7.932;2024-03-23T14:37:40;95803.50;;;9.76;100.00
64141;BME280;50436;50.618;7.932;2024-03-23T14:40:31;95806.34;;;11.20;100.00
64141;BME280;50436;50.618;7.932;2024-03-23T14:43:17;95781.81;;;17.29;68.40
64141;BME280;50436;50.618;7.932;2024-03-23T14:46:16;95779.03;;;19.18;50.63
64141;BME280;50436;50.618;7.932;2024-03-23T14:49:02;95775.78;;;16.46;60.81
64141;BME280;50436;50.618;7.932;2024-03-23T14:51:49;95768.06;;;15.70;71.25
64141;BME280;50436;50.618;7.932;2024-03-23T14:54:35;95776.97;;;14.44;80.12
64141;BME280;50436;50.618;7.932;2024-03-23T14:57:21;95775.59;;;13.17;88.36
64141;BME280;50436;50.618;7.932;2024-03-23T15:00:10;95769.22;;;12.14;92.45
64141;BME280;50436;50.618;7.932;2024-03-23T15:02:57;95749.56;;;11.38;96.95
64141;BME280;50436;50.618;7.932;2024-03-23T15:05:56;95761.63;;;10.75;97.92
64141;BME280;50436;50.618;7.932;2024-03-23T15:08:45;95765.06;;;10.55;100.00
64141;BME280;50436;50.618;7.932;2024-03-23T15:11:31;95760.75;;;10.39;100.00
64141;BME280;50436;50.618;7.932;2024-03-23T15:14:18;95761.25;;;10.25;100.00
64141;BME280;50436;50.618;7.932;2024-03-23T15:17:04;95767.00;;;9.97;100.00
64141;BME280;50436;50.618;7.932;2024-03-23T15:19:52;95761.56;;;9.29;100.00
64141;BME280;50436;50.618;7.932;2024-03-23T15:22:39;95785.75;;;9.17;100.00
64141;BME280;50436;50.618;7.932;2024-03-23T15:25:25;95777.31;;;9.31;100.00
64141;BME280;50436;50.618;7.932;2024-03-23T15:28:11;95775.94;;;8.59;100.00
64141;BME280;50436;50.618;7.932;2024-03-23T15:30:58;95769.47;;;9.14;100.00
64141;BME280;50436;50.618;7.932;2024-03-23T15:33:44;95759.19;;;11.60;95.63
64141;BME280;50436;50.618;7.932;2024-03-23T15:36:30;95758.94;;;15.20;70.23
64141;BME280;50436;50.618;7.932;2024-03-23T15:39:17;95751.63;;;14.88;60.46
64141;BME280;50436;50.618;7.932;2024-03-23T15:42:03;95761.53;;;11.92;82.33